ROMMA est une association bénévole à but non lucratif. Votre soutien est indispensable : ADHERER à ROMMA ou FAIRE un DON

Lans-en-Vercors - (38, Isère)

Vercors (990 m)   Longitude: 5° 33' 59'' E   Latitude: 45° 6' 3'' N Station partenaire n°80
 

Détail journalier du     <<     >>

Température Precipitation Humidité Pression Vent Dir Rafale Dir. rafale Ensol.
Heure (°C) (mm) (%) (hPa) (km/h) (km/h) (min)
01:00 11.1086101705NNO0
02:00 11.608510171NNO13NNO0
03:00 11.3085101708NNO0
04:00 11.308210163NNO16NNO0
05:00 9.908610153NO16NNO0
06:00 8.8089101502NO0
07:00 9.6091101500NO0
08:00 11.8085101500NO10
09:00 13.8077101506NO20
10:00 15.407110147NNE23NNE20
11:00 16.706810149NNE21NNE30
12:00 16.1071101410NNO21NE0
13:00 16.407310147N19N0
14:00 16.207210138NNO23NNO10
15:00 16.5070101210N21NE0
16:00 17.8069101211NNO26NO20
17:00 17.8071101111NNO26ONO20
18:00 16.207110119N24N20
19:00 16.8069101111NNO26NO30
20:00 15.107410117NNO19NO0
21:00 14.307710115N16N10
22:00 12.108410121NO10NO10
23:00 11.4087101205NO0
minuit 11.308810132O10O0

Graphique du 16-06-2020

 

Serveur OMMA